sensor_id;sensor_type;location;lat;lon;timestamp;P1;durP1;ratioP1;P2;durP2;ratioP2
79204;SDS011;68632;47.512;19.104;2023-12-29T00:01:00;82.90;;;46.58;;
79204;SDS011;68632;47.512;19.104;2023-12-29T00:02:03;76.70;;;46.25;;
79204;SDS011;68632;47.512;19.104;2023-12-29T00:03:05;79.28;;;48.25;;
79204;SDS011;68632;47.512;19.104;2023-12-29T00:04:07;77.65;;;49.10;;
79204;SDS011;68632;47.512;19.104;2023-12-29T00:05:09;78.60;;;45.72;;
79204;SDS011;68632;47.512;19.104;2023-12-29T00:06:12;80.20;;;46.60;;
79204;SDS011;68632;47.512;19.104;2023-12-29T00:07:15;80.95;;;46.50;;
79204;SDS011;68632;47.512;19.104;2023-12-29T00:08:19;76.45;;;46.90;;
79204;SDS011;68632;47.512;19.104;2023-12-29T00:09:21;76.15;;;46.92;;
79204;SDS011;68632;47.512;19.104;2023-12-29T00:10:23;75.07;;;45.97;;
79204;SDS011;68632;47.512;19.104;2023-12-29T00:11:25;83.28;;;48.30;;
79204;SDS011;68632;47.512;19.104;2023-12-29T00:12:28;78.15;;;47.85;;
79204;SDS011;68632;47.512;19.104;2023-12-29T00:13:30;79.63;;;48.13;;
79204;SDS011;68632;47.512;19.104;2023-12-29T00:14:32;84.43;;;48.17;;
79204;SDS011;68632;47.512;19.104;2023-12-29T00:15:35;81.43;;;46.80;;
79204;SDS011;68632;47.512;19.104;2023-12-29T00:16:37;78.82;;;46.60;;
79204;SDS011;68632;47.512;19.104;2023-12-29T00:17:39;83.32;;;47.13;;
79204;SDS011;68632;47.512;19.104;2023-12-29T00:18:42;78.45;;;47.38;;
79204;SDS011;68632;47.512;19.104;2023-12-29T00:19:45;79.88;;;48.30;;
79204;SDS011;68632;47.512;19.104;2023-12-29T00:20:48;81.93;;;49.25;;
79204;SDS011;68632;47.512;19.104;2023-12-29T00:22:06;77.68;;;45.03;;
79204;SDS011;68632;47.512;19.104;2023-12-29T00:23:08;76.95;;;47.15;;
79204;SDS011;68632;47.512;19.104;2023-12-29T00:24:11;77.93;;;46.20;;
79204;SDS011;68632;47.512;19.104;2023-12-29T00:25:13;80.20;;;47.28;;
79204;SDS011;68632;47.512;19.104;2023-12-29T00:26:16;76.22;;;46.92;;
79204;SDS011;68632;47.512;19.104;2023-12-29T00:27:18;80.20;;;48.55;;
79204;SDS011;68632;47.512;19.104;2023-12-29T00:28:20;81.05;;;47.90;;
79204;SDS011;68632;47.512;19.104;2023-12-29T00:29:23;78.07;;;50.72;;
79204;SDS011;68632;47.512;19.104;2023-12-29T00:30:25;73.78;;;46.10;;
79204;SDS011;68632;47.512;19.104;2023-12-29T00:31:47;81.22;;;46.70;;
79204;SDS011;68632;47.512;19.104;2023-12-29T00:32:49;88.55;;;51.05;;
79204;SDS011;68632;47.512;19.104;2023-12-29T00:33:52;82.20;;;49.17;;
79204;SDS011;68632;47.512;19.104;2023-12-29T00:34:55;88.65;;;53.85;;
79204;SDS011;68632;47.512;19.104;2023-12-29T00:35:58;85.90;;;51.60;;
79204;SDS011;68632;47.512;19.104;2023-12-29T00:37:00;89.90;;;49.50;;
79204;SDS011;68632;47.512;19.104;2023-12-29T00:38:02;82.75;;;50.88;;
79204;SDS011;68632;47.512;19.104;2023-12-29T00:39:04;85.03;;;50.72;;
79204;SDS011;68632;47.512;19.104;2023-12-29T00:40:07;82.53;;;49.63;;
79204;SDS011;68632;47.512;19.104;2023-12-29T00:41:11;87.38;;;52.88;;
79204;SDS011;68632;47.512;19.104;2023-12-29T00:42:13;92.20;;;54.65;;
79204;SDS011;68632;47.512;19.104;2023-12-29T00:43:16;89.13;;;54.60;;
79204;SDS011;68632;47.512;19.104;2023-12-29T00:44:19;90.70;;;53.72;;
79204;SDS011;68632;47.512;19.104;2023-12-29T00:45:22;84.43;;;51.72;;
79204;SDS011;68632;47.512;19.104;2023-12-29T00:46:24;92.45;;;53.25;;
79204;SDS011;68632;47.512;19.104;2023-12-29T00:47:26;83.82;;;52.28;;
79204;SDS011;68632;47.512;19.104;2023-12-29T00:48:28;93.38;;;52.10;;
79204;SDS011;68632;47.512;19.104;2023-12-29T00:49:31;95.30;;;55.38;;
79204;SDS011;68632;47.512;19.104;2023-12-29T00:50:33;95.07;;;56.70;;
79204;SDS011;68632;47.512;19.104;2023-12-29T00:51:39;91.65;;;55.35;;
79204;SDS011;68632;47.512;19.104;2023-12-29T00:52:43;83.65;;;51.65;;
79204;SDS011;68632;47.512;19.104;2023-12-29T00:53:45;93.75;;;51.92;;
79204;SDS011;68632;47.512;19.104;2023-12-29T00:54:48;87.45;;;54.10;;
79204;SDS011;68632;47.512;19.104;2023-12-29T00:55:50;89.70;;;52.65;;
79204;SDS011;68632;47.512;19.104;2023-12-29T00:56:52;84.25;;;50.40;;
79204;SDS011;68632;47.512;19.104;2023-12-29T00:57:54;88.13;;;51.95;;
79204;SDS011;68632;47.512;19.104;2023-12-29T00:58:57;84.80;;;49.88;;
79204;SDS011;68632;47.512;19.104;2023-12-29T00:59:59;86.50;;;51.03;;
79204;SDS011;68632;47.512;19.104;2023-12-29T01:01:02;84.78;;;48.40;;
79204;SDS011;68632;47.512;19.104;2023-12-29T01:02:04;82.47;;;48.28;;
79204;SDS011;68632;47.512;19.104;2023-12-29T01:03:06;87.97;;;50.45;;
79204;SDS011;68632;47.512;19.104;2023-12-29T01:04:08;84.57;;;49.50;;
79204;SDS011;68632;47.512;19.104;2023-12-29T01:05:14;86.05;;;48.97;;
79204;SDS011;68632;47.512;19.104;2023-12-29T01:06:18;90.93;;;50.05;;
79204;SDS011;68632;47.512;19.104;2023-12-29T01:07:20;90.40;;;50.58;;
79204;SDS011;68632;47.512;19.104;2023-12-29T01:08:22;82.30;;;48.97;;
79204;SDS011;68632;47.512;19.104;2023-12-29T01:09:26;80.32;;;47.20;;
79204;SDS011;68632;47.512;19.104;2023-12-29T01:10:28;83.32;;;46.97;;
79204;SDS011;68632;47.512;19.104;2023-12-29T01:11:30;82.70;;;46.75;;
79204;SDS011;68632;47.512;19.104;2023-12-29T01:12:32;95.47;;;51.67;;
79204;SDS011;68632;47.512;19.104;2023-12-29T01:13:34;83.97;;;51.65;;
79204;SDS011;68632;47.512;19.104;2023-12-29T01:14:36;85.65;;;51.17;;
79204;SDS011;68632;47.512;19.104;2023-12-29T01:15:39;84.32;;;50.97;;
79204;SDS011;68632;47.512;19.104;2023-12-29T01:16:42;84.63;;;49.40;;
79204;SDS011;68632;47.512;19.104;2023-12-29T01:17:45;89.82;;;52.05;;
79204;SDS011;68632;47.512;19.104;2023-12-29T01:18:47;85.88;;;49.38;;
79204;SDS011;68632;47.512;19.104;2023-12-29T01:19:49;87.75;;;51.83;;
79204;SDS011;68632;47.512;19.104;2023-12-29T01:20:52;92.78;;;50.50;;
79204;SDS011;68632;47.512;19.104;2023-12-29T01:21:54;94.28;;;50.00;;
79204;SDS011;68632;47.512;19.104;2023-12-29T01:22:56;87.95;;;48.95;;
79204;SDS011;68632;47.512;19.104;2023-12-29T01:23:58;92.43;;;52.75;;
79204;SDS011;68632;47.512;19.104;2023-12-29T01:25:00;87.03;;;50.42;;
79204;SDS011;68632;47.512;19.104;2023-12-29T01:26:03;92.78;;;53.97;;
79204;SDS011;68632;47.512;19.104;2023-12-29T01:27:05;91.60;;;50.22;;
79204;SDS011;68632;47.512;19.104;2023-12-29T01:28:07;87.18;;;52.28;;
79204;SDS011;68632;47.512;19.104;2023-12-29T01:29:09;89.13;;;49.13;;
79204;SDS011;68632;47.512;19.104;2023-12-29T01:30:12;87.35;;;51.10;;
79204;SDS011;68632;47.512;19.104;2023-12-29T01:31:14;85.25;;;54.08;;
79204;SDS011;68632;47.512;19.104;2023-12-29T01:32:17;86.25;;;52.40;;
79204;SDS011;68632;47.512;19.104;2023-12-29T01:33:19;87.70;;;51.13;;
79204;SDS011;68632;47.512;19.104;2023-12-29T01:34:23;93.93;;;51.15;;
79204;SDS011;68632;47.512;19.104;2023-12-29T01:35:25;89.65;;;52.22;;
79204;SDS011;68632;47.512;19.104;2023-12-29T01:36:28;83.35;;;49.58;;
79204;SDS011;68632;47.512;19.104;2023-12-29T01:37:30;85.60;;;50.08;;
79204;SDS011;68632;47.512;19.104;2023-12-29T01:38:32;85.82;;;50.80;;
79204;SDS011;68632;47.512;19.104;2023-12-29T01:39:34;82.97;;;50.25;;
79204;SDS011;68632;47.512;19.104;2023-12-29T01:40:45;85.90;;;50.78;;
79204;SDS011;68632;47.512;19.104;2023-12-29T01:41:48;76.75;;;48.65;;
79204;SDS011;68632;47.512;19.104;2023-12-29T01:42:50;80.50;;;48.92;;
79204;SDS011;68632;47.512;19.104;2023-12-29T01:45:03;87.18;;;50.35;;
79204;SDS011;68632;47.512;19.104;2023-12-29T01:46:07;85.00;;;50.42;;
79204;SDS011;68632;47.512;19.104;2023-12-29T01:47:13;83.40;;;52.25;;
79204;SDS011;68632;47.512;19.104;2023-12-29T01:48:19;79.70;;;47.97;;
79204;SDS011;68632;47.512;19.104;2023-12-29T01:49:22;87.40;;;52.28;;
79204;SDS011;68632;47.512;19.104;2023-12-29T01:50:24;81.88;;;48.45;;
79204;SDS011;68632;47.512;19.104;2023-12-29T01:51:26;88.35;;;50.22;;
79204;SDS011;68632;47.512;19.104;2023-12-29T01:52:29;87.13;;;51.97;;
79204;SDS011;68632;47.512;19.104;2023-12-29T01:53:31;89.50;;;51.13;;
79204;SDS011;68632;47.512;19.104;2023-12-29T01:54:47;84.75;;;48.10;;
79204;SDS011;68632;47.512;19.104;2023-12-29T01:55:50;80.72;;;48.00;;
79204;SDS011;68632;47.512;19.104;2023-12-29T01:56:53;90.05;;;50.58;;
79204;SDS011;68632;47.512;19.104;2023-12-29T01:57:57;85.53;;;49.78;;
79204;SDS011;68632;47.512;19.104;2023-12-29T01:59:00;81.03;;;49.25;;
79204;SDS011;68632;47.512;19.104;2023-12-29T02:00:12;83.93;;;49.97;;
79204;SDS011;68632;47.512;19.104;2023-12-29T02:01:15;84.13;;;50.28;;
79204;SDS011;68632;47.512;19.104;2023-12-29T02:02:21;84.85;;;50.70;;
79204;SDS011;68632;47.512;19.104;2023-12-29T02:03:23;88.80;;;53.28;;
79204;SDS011;68632;47.512;19.104;2023-12-29T02:04:25;88.75;;;51.05;;
79204;SDS011;68632;47.512;19.104;2023-12-29T02:05:29;83.90;;;49.67;;
79204;SDS011;68632;47.512;19.104;2023-12-29T02:06:31;89.95;;;49.90;;
79204;SDS011;68632;47.512;19.104;2023-12-29T02:07:35;83.68;;;50.58;;
79204;SDS011;68632;47.512;19.104;2023-12-29T02:08:38;86.90;;;49.13;;
79204;SDS011;68632;47.512;19.104;2023-12-29T02:09:42;85.43;;;47.90;;
79204;SDS011;68632;47.512;19.104;2023-12-29T02:10:46;79.05;;;47.45;;
79204;SDS011;68632;47.512;19.104;2023-12-29T02:11:49;80.70;;;48.72;;
79204;SDS011;68632;47.512;19.104;2023-12-29T02:12:51;83.30;;;48.28;;
79204;SDS011;68632;47.512;19.104;2023-12-29T02:13:59;80.82;;;47.33;;
79204;SDS011;68632;47.512;19.104;2023-12-29T02:15:02;83.47;;;50.58;;
79204;SDS011;68632;47.512;19.104;2023-12-29T02:16:12;84.22;;;51.25;;
79204;SDS011;68632;47.512;19.104;2023-12-29T02:17:48;75.38;;;42.67;;
79204;SDS011;68632;47.512;19.104;2023-12-29T02:18:54;77.07;;;43.78;;
79204;SDS011;68632;47.512;19.104;2023-12-29T02:19:58;78.63;;;46.60;;
79204;SDS011;68632;47.512;19.104;2023-12-29T02:21:02;81.05;;;48.03;;
79204;SDS011;68632;47.512;19.104;2023-12-29T02:22:05;80.25;;;47.40;;
79204;SDS011;68632;47.512;19.104;2023-12-29T02:23:07;80.57;;;47.72;;
79204;SDS011;68632;47.512;19.104;2023-12-29T02:24:10;78.70;;;47.53;;
79204;SDS011;68632;47.512;19.104;2023-12-29T02:25:12;81.70;;;47.35;;
79204;SDS011;68632;47.512;19.104;2023-12-29T02:26:14;80.22;;;48.22;;
79204;SDS011;68632;47.512;19.104;2023-12-29T02:28:44;81.22;;;43.97;;
79204;SDS011;68632;47.512;19.104;2023-12-29T02:29:56;75.75;;;45.97;;
79204;SDS011;68632;47.512;19.104;2023-12-29T02:31:17;74.05;;;42.63;;
79204;SDS011;68632;47.512;19.104;2023-12-29T02:32:22;74.68;;;44.28;;
79204;SDS011;68632;47.512;19.104;2023-12-29T02:33:25;82.90;;;46.83;;
79204;SDS011;68632;47.512;19.104;2023-12-29T02:34:28;79.03;;;48.92;;
79204;SDS011;68632;47.512;19.104;2023-12-29T02:35:33;82.63;;;47.90;;
79204;SDS011;68632;47.512;19.104;2023-12-29T02:36:38;82.53;;;48.40;;
79204;SDS011;68632;47.512;19.104;2023-12-29T02:37:44;83.38;;;47.72;;
79204;SDS011;68632;47.512;19.104;2023-12-29T02:38:47;88.70;;;49.45;;
79204;SDS011;68632;47.512;19.104;2023-12-29T02:39:49;76.82;;;46.85;;
79204;SDS011;68632;47.512;19.104;2023-12-29T02:40:51;77.75;;;46.28;;
79204;SDS011;68632;47.512;19.104;2023-12-29T02:41:53;81.63;;;45.42;;
79204;SDS011;68632;47.512;19.104;2023-12-29T02:42:56;78.93;;;46.33;;
79204;SDS011;68632;47.512;19.104;2023-12-29T02:43:58;80.97;;;46.67;;
79204;SDS011;68632;47.512;19.104;2023-12-29T02:45:01;73.50;;;45.00;;
79204;SDS011;68632;47.512;19.104;2023-12-29T02:46:03;76.80;;;46.47;;
79204;SDS011;68632;47.512;19.104;2023-12-29T02:47:05;86.53;;;47.55;;
79204;SDS011;68632;47.512;19.104;2023-12-29T02:48:08;85.55;;;49.05;;
79204;SDS011;68632;47.512;19.104;2023-12-29T02:49:10;79.97;;;48.63;;
79204;SDS011;68632;47.512;19.104;2023-12-29T02:50:15;76.50;;;46.08;;
79204;SDS011;68632;47.512;19.104;2023-12-29T02:51:17;77.63;;;48.00;;
79204;SDS011;68632;47.512;19.104;2023-12-29T02:52:19;78.13;;;47.47;;
79204;SDS011;68632;47.512;19.104;2023-12-29T02:53:22;82.13;;;48.13;;
79204;SDS011;68632;47.512;19.104;2023-12-29T02:54:24;81.18;;;50.38;;
79204;SDS011;68632;47.512;19.104;2023-12-29T02:55:26;83.20;;;48.30;;
79204;SDS011;68632;47.512;19.104;2023-12-29T02:56:28;79.53;;;47.50;;
79204;SDS011;68632;47.512;19.104;2023-12-29T02:57:30;81.30;;;49.05;;
79204;SDS011;68632;47.512;19.104;2023-12-29T02:58:32;87.50;;;51.42;;
79204;SDS011;68632;47.512;19.104;2023-12-29T02:59:34;80.53;;;48.80;;
79204;SDS011;68632;47.512;19.104;2023-12-29T03:00:37;83.80;;;48.20;;
79204;SDS011;68632;47.512;19.104;2023-12-29T03:01:39;81.93;;;48.60;;
79204;SDS011;68632;47.512;19.104;2023-12-29T03:02:42;88.50;;;51.15;;
79204;SDS011;68632;47.512;19.104;2023-12-29T03:03:44;89.05;;;51.30;;
79204;SDS011;68632;47.512;19.104;2023-12-29T03:04:46;82.97;;;49.17;;
79204;SDS011;68632;47.512;19.104;2023-12-29T03:05:49;81.97;;;50.72;;
79204;SDS011;68632;47.512;19.104;2023-12-29T03:06:51;83.60;;;51.58;;
79204;SDS011;68632;47.512;19.104;2023-12-29T03:07:53;79.13;;;48.28;;
79204;SDS011;68632;47.512;19.104;2023-12-29T03:08:55;82.57;;;50.08;;
79204;SDS011;68632;47.512;19.104;2023-12-29T03:09:57;76.55;;;46.88;;
79204;SDS011;68632;47.512;19.104;2023-12-29T03:11:00;84.88;;;52.72;;
79204;SDS011;68632;47.512;19.104;2023-12-29T03:12:02;89.38;;;54.90;;
79204;SDS011;68632;47.512;19.104;2023-12-29T03:13:04;89.05;;;52.08;;
79204;SDS011;68632;47.512;19.104;2023-12-29T03:14:07;86.63;;;50.38;;
79204;SDS011;68632;47.512;19.104;2023-12-29T03:15:09;89.22;;;52.85;;
79204;SDS011;68632;47.512;19.104;2023-12-29T03:16:11;86.55;;;51.55;;
79204;SDS011;68632;47.512;19.104;2023-12-29T03:17:14;88.75;;;51.40;;
79204;SDS011;68632;47.512;19.104;2023-12-29T03:18:16;84.30;;;48.95;;
79204;SDS011;68632;47.512;19.104;2023-12-29T03:19:18;87.97;;;52.30;;
79204;SDS011;68632;47.512;19.104;2023-12-29T03:20:21;86.82;;;51.45;;
79204;SDS011;68632;47.512;19.104;2023-12-29T03:21:23;80.18;;;49.47;;
79204;SDS011;68632;47.512;19.104;2023-12-29T03:22:25;82.20;;;50.75;;
79204;SDS011;68632;47.512;19.104;2023-12-29T03:23:27;84.72;;;50.92;;
79204;SDS011;68632;47.512;19.104;2023-12-29T03:24:30;84.47;;;52.80;;
79204;SDS011;68632;47.512;19.104;2023-12-29T03:25:32;87.53;;;52.28;;
79204;SDS011;68632;47.512;19.104;2023-12-29T03:26:34;83.60;;;50.22;;
79204;SDS011;68632;47.512;19.104;2023-12-29T03:27:36;89.45;;;51.50;;
79204;SDS011;68632;47.512;19.104;2023-12-29T03:28:39;87.10;;;52.00;;
79204;SDS011;68632;47.512;19.104;2023-12-29T03:29:41;83.65;;;50.55;;
79204;SDS011;68632;47.512;19.104;2023-12-29T03:30:44;83.35;;;48.85;;
79204;SDS011;68632;47.512;19.104;2023-12-29T03:31:46;83.78;;;49.58;;
79204;SDS011;68632;47.512;19.104;2023-12-29T03:32:49;87.57;;;49.97;;
79204;SDS011;68632;47.512;19.104;2023-12-29T03:33:51;91.03;;;53.97;;
79204;SDS011;68632;47.512;19.104;2023-12-29T03:34:53;87.70;;;52.10;;
79204;SDS011;68632;47.512;19.104;2023-12-29T03:35:55;84.22;;;50.90;;
79204;SDS011;68632;47.512;19.104;2023-12-29T03:36:58;84.72;;;52.08;;
79204;SDS011;68632;47.512;19.104;2023-12-29T03:38:00;86.65;;;51.53;;
79204;SDS011;68632;47.512;19.104;2023-12-29T03:39:03;85.03;;;51.90;;
79204;SDS011;68632;47.512;19.104;2023-12-29T03:40:05;84.60;;;48.28;;
79204;SDS011;68632;47.512;19.104;2023-12-29T03:41:08;88.63;;;50.95;;
79204;SDS011;68632;47.512;19.104;2023-12-29T03:42:10;86.32;;;49.33;;
79204;SDS011;68632;47.512;19.104;2023-12-29T03:43:12;90.30;;;50.45;;
79204;SDS011;68632;47.512;19.104;2023-12-29T03:44:15;93.97;;;53.75;;
79204;SDS011;68632;47.512;19.104;2023-12-29T03:45:17;86.28;;;49.53;;
79204;SDS011;68632;47.512;19.104;2023-12-29T03:46:20;93.18;;;54.85;;
79204;SDS011;68632;47.512;19.104;2023-12-29T03:47:23;98.22;;;54.28;;
79204;SDS011;68632;47.512;19.104;2023-12-29T03:48:25;88.13;;;52.45;;
79204;SDS011;68632;47.512;19.104;2023-12-29T03:49:27;94.60;;;52.38;;
79204;SDS011;68632;47.512;19.104;2023-12-29T03:50:30;90.38;;;54.72;;
79204;SDS011;68632;47.512;19.104;2023-12-29T03:51:32;94.60;;;50.33;;
79204;SDS011;68632;47.512;19.104;2023-12-29T03:52:34;87.97;;;51.17;;
79204;SDS011;68632;47.512;19.104;2023-12-29T03:53:36;93.20;;;51.80;;
79204;SDS011;68632;47.512;19.104;2023-12-29T03:54:38;91.57;;;48.75;;
79204;SDS011;68632;47.512;19.104;2023-12-29T03:55:41;91.07;;;51.38;;
79204;SDS011;68632;47.512;19.104;2023-12-29T03:56:43;91.18;;;50.03;;
79204;SDS011;68632;47.512;19.104;2023-12-29T03:57:46;89.35;;;49.75;;
79204;SDS011;68632;47.512;19.104;2023-12-29T03:58:48;87.30;;;48.35;;
79204;SDS011;68632;47.512;19.104;2023-12-29T03:59:50;96.43;;;50.65;;
79204;SDS011;68632;47.512;19.104;2023-12-29T04:00:52;97.50;;;50.72;;
79204;SDS011;68632;47.512;19.104;2023-12-29T04:01:54;92.15;;;50.55;;
79204;SDS011;68632;47.512;19.104;2023-12-29T04:02:57;94.57;;;50.22;;
79204;SDS011;68632;47.512;19.104;2023-12-29T04:03:59;98.35;;;49.10;;
79204;SDS011;68632;47.512;19.104;2023-12-29T04:05:02;89.93;;;48.38;;
79204;SDS011;68632;47.512;19.104;2023-12-29T04:06:04;94.15;;;50.95;;
79204;SDS011;68632;47.512;19.104;2023-12-29T04:07:07;104.63;;;53.30;;
79204;SDS011;68632;47.512;19.104;2023-12-29T04:08:09;90.50;;;47.13;;
79204;SDS011;68632;47.512;19.104;2023-12-29T04:09:11;99.07;;;47.72;;
79204;SDS011;68632;47.512;19.104;2023-12-29T04:10:13;92.25;;;44.17;;
79204;SDS011;68632;47.512;19.104;2023-12-29T04:11:16;98.68;;;50.03;;
79204;SDS011;68632;47.512;19.104;2023-12-29T04:12:18;107.47;;;52.63;;
79204;SDS011;68632;47.512;19.104;2023-12-29T04:13:20;92.55;;;49.05;;
79204;SDS011;68632;47.512;19.104;2023-12-29T04:14:23;96.95;;;42.70;;
79204;SDS011;68632;47.512;19.104;2023-12-29T04:15:25;92.90;;;48.67;;
79204;SDS011;68632;47.512;19.104;2023-12-29T04:16:27;100.45;;;49.42;;
79204;SDS011;68632;47.512;19.104;2023-12-29T04:17:29;94.07;;;45.58;;
79204;SDS011;68632;47.512;19.104;2023-12-29T04:18:31;95.47;;;48.10;;
79204;SDS011;68632;47.512;19.104;2023-12-29T04:19:34;93.60;;;47.85;;
79204;SDS011;68632;47.512;19.104;2023-12-29T04:20:36;94.95;;;45.63;;
79204;SDS011;68632;47.512;19.104;2023-12-29T04:21:38;98.07;;;47.58;;
79204;SDS011;68632;47.512;19.104;2023-12-29T04:22:40;90.30;;;46.30;;
79204;SDS011;68632;47.512;19.104;2023-12-29T04:23:42;93.03;;;44.38;;
79204;SDS011;68632;47.512;19.104;2023-12-29T04:24:45;94.25;;;47.97;;
79204;SDS011;68632;47.512;19.104;2023-12-29T04:25:47;86.57;;;42.20;;
79204;SDS011;68632;47.512;19.104;2023-12-29T04:26:49;85.00;;;44.28;;
79204;SDS011;68632;47.512;19.104;2023-12-29T04:27:51;88.00;;;42.30;;
79204;SDS011;68632;47.512;19.104;2023-12-29T04:28:53;93.57;;;44.47;;
79204;SDS011;68632;47.512;19.104;2023-12-29T04:29:56;86.53;;;43.85;;
79204;SDS011;68632;47.512;19.104;2023-12-29T04:30:58;78.38;;;40.53;;
79204;SDS011;68632;47.512;19.104;2023-12-29T04:32:00;87.50;;;42.30;;
79204;SDS011;68632;47.512;19.104;2023-12-29T04:33:02;89.85;;;41.90;;
79204;SDS011;68632;47.512;19.104;2023-12-29T04:34:05;80.15;;;40.80;;
79204;SDS011;68632;47.512;19.104;2023-12-29T04:35:07;94.55;;;49.85;;
79204;SDS011;68632;47.512;19.104;2023-12-29T04:36:12;86.15;;;41.63;;
79204;SDS011;68632;47.512;19.104;2023-12-29T04:37:14;80.72;;;39.40;;
79204;SDS011;68632;47.512;19.104;2023-12-29T04:38:16;84.13;;;42.72;;
79204;SDS011;68632;47.512;19.104;2023-12-29T04:39:20;82.05;;;39.33;;
79204;SDS011;68632;47.512;19.104;2023-12-29T04:40:22;81.90;;;40.22;;
79204;SDS011;68632;47.512;19.104;2023-12-29T04:41:24;78.43;;;38.58;;
79204;SDS011;68632;47.512;19.104;2023-12-29T04:42:26;82.45;;;37.60;;
79204;SDS011;68632;47.512;19.104;2023-12-29T04:43:28;76.97;;;39.35;;
79204;SDS011;68632;47.512;19.104;2023-12-29T04:44:30;74.60;;;36.65;;
79204;SDS011;68632;47.512;19.104;2023-12-29T04:45:33;82.53;;;37.78;;
79204;SDS011;68632;47.512;19.104;2023-12-29T04:46:35;68.38;;;34.30;;
79204;SDS011;68632;47.512;19.104;2023-12-29T04:47:37;63.45;;;32.78;;
79204;SDS011;68632;47.512;19.104;2023-12-29T04:48:39;77.30;;;37.83;;
79204;SDS011;68632;47.512;19.104;2023-12-29T04:49:42;80.13;;;38.30;;
79204;SDS011;68632;47.512;19.104;2023-12-29T04:50:44;83.00;;;40.22;;
79204;SDS011;68632;47.512;19.104;2023-12-29T04:51:46;82.90;;;39.53;;
79204;SDS011;68632;47.512;19.104;2023-12-29T04:52:50;76.60;;;39.97;;
79204;SDS011;68632;47.512;19.104;2023-12-29T04:53:52;73.10;;;39.10;;
79204;SDS011;68632;47.512;19.104;2023-12-29T04:54:54;77.95;;;39.13;;
79204;SDS011;68632;47.512;19.104;2023-12-29T04:55:56;75.40;;;38.08;;
79204;SDS011;68632;47.512;19.104;2023-12-29T04:56:59;70.55;;;38.55;;
79204;SDS011;68632;47.512;19.104;2023-12-29T04:58:01;77.18;;;36.78;;
79204;SDS011;68632;47.512;19.104;2023-12-29T04:59:03;75.05;;;37.85;;
79204;SDS011;68632;47.512;19.104;2023-12-29T05:00:06;76.78;;;38.95;;
79204;SDS011;68632;47.512;19.104;2023-12-29T05:01:08;70.35;;;38.63;;
79204;SDS011;68632;47.512;19.104;2023-12-29T05:02:11;73.28;;;38.20;;
79204;SDS011;68632;47.512;19.104;2023-12-29T05:03:13;86.97;;;39.47;;
79204;SDS011;68632;47.512;19.104;2023-12-29T05:04:15;79.13;;;41.03;;
79204;SDS011;68632;47.512;19.104;2023-12-29T05:05:19;72.40;;;38.78;;
79204;SDS011;68632;47.512;19.104;2023-12-29T05:06:21;73.47;;;34.15;;
79204;SDS011;68632;47.512;19.104;2023-12-29T05:07:23;75.68;;;36.60;;
79204;SDS011;68632;47.512;19.104;2023-12-29T05:08:26;80.13;;;38.65;;
79204;SDS011;68632;47.512;19.104;2023-12-29T05:09:28;80.75;;;37.65;;
79204;SDS011;68632;47.512;19.104;2023-12-29T05:10:30;78.30;;;39.55;;
79204;SDS011;68632;47.512;19.104;2023-12-29T05:11:32;72.72;;;38.17;;
79204;SDS011;68632;47.512;19.104;2023-12-29T05:12:34;64.32;;;33.53;;
79204;SDS011;68632;47.512;19.104;2023-12-29T05:13:37;69.07;;;36.95;;
79204;SDS011;68632;47.512;19.104;2023-12-29T05:14:39;81.22;;;38.85;;
79204;SDS011;68632;47.512;19.104;2023-12-29T05:15:41;72.93;;;37.55;;
79204;SDS011;68632;47.512;19.104;2023-12-29T05:16:44;67.90;;;37.60;;
79204;SDS011;68632;47.512;19.104;2023-12-29T05:17:46;66.90;;;34.67;;
79204;SDS011;68632;47.512;19.104;2023-12-29T05:18:48;65.18;;;32.33;;
79204;SDS011;68632;47.512;19.104;2023-12-29T05:19:50;67.32;;;33.40;;
79204;SDS011;68632;47.512;19.104;2023-12-29T05:20:53;68.00;;;36.78;;
79204;SDS011;68632;47.512;19.104;2023-12-29T05:21:55;73.65;;;36.80;;
79204;SDS011;68632;47.512;19.104;2023-12-29T05:22:57;75.30;;;38.13;;
79204;SDS011;68632;47.512;19.104;2023-12-29T05:23:59;70.32;;;36.30;;
79204;SDS011;68632;47.512;19.104;2023-12-29T05:25:02;71.18;;;37.65;;
79204;SDS011;68632;47.512;19.104;2023-12-29T05:26:05;70.60;;;35.20;;
79204;SDS011;68632;47.512;19.104;2023-12-29T05:27:07;74.00;;;38.28;;
79204;SDS011;68632;47.512;19.104;2023-12-29T05:28:09;77.78;;;39.20;;
79204;SDS011;68632;47.512;19.104;2023-12-29T05:29:12;80.05;;;39.70;;
79204;SDS011;68632;47.512;19.104;2023-12-29T05:30:14;82.70;;;40.38;;
79204;SDS011;68632;47.512;19.104;2023-12-29T05:31:16;73.28;;;36.67;;
79204;SDS011;68632;47.512;19.104;2023-12-29T05:32:18;73.85;;;37.83;;
79204;SDS011;68632;47.512;19.104;2023-12-29T05:33:21;72.00;;;37.83;;
79204;SDS011;68632;47.512;19.104;2023-12-29T05:34:23;70.30;;;38.70;;
79204;SDS011;68632;47.512;19.104;2023-12-29T05:35:25;80.43;;;42.90;;
79204;SDS011;68632;47.512;19.104;2023-12-29T05:36:27;77.20;;;38.92;;
79204;SDS011;68632;47.512;19.104;2023-12-29T05:37:30;73.82;;;36.88;;
79204;SDS011;68632;47.512;19.104;2023-12-29T05:38:32;75.03;;;36.97;;
79204;SDS011;68632;47.512;19.104;2023-12-29T05:39:35;69.05;;;37.20;;
79204;SDS011;68632;47.512;19.104;2023-12-29T05:40:37;74.18;;;37.15;;
79204;SDS011;68632;47.512;19.104;2023-12-29T05:41:39;69.00;;;37.20;;
79204;SDS011;68632;47.512;19.104;2023-12-29T05:42:41;65.25;;;34.22;;
79204;SDS011;68632;47.512;19.104;2023-12-29T05:43:44;61.70;;;34.10;;
79204;SDS011;68632;47.512;19.104;2023-12-29T05:44:46;67.63;;;35.58;;
79204;SDS011;68632;47.512;19.104;2023-12-29T05:45:48;65.90;;;33.90;;
79204;SDS011;68632;47.512;19.104;2023-12-29T05:46:50;69.13;;;36.78;;
79204;SDS011;68632;47.512;19.104;2023-12-29T05:47:53;75.13;;;38.22;;
79204;SDS011;68632;47.512;19.104;2023-12-29T05:48:55;71.38;;;37.28;;
79204;SDS011;68632;47.512;19.104;2023-12-29T05:49:57;75.75;;;36.90;;
79204;SDS011;68632;47.512;19.104;2023-12-29T05:51:02;64.88;;;34.30;;
79204;SDS011;68632;47.512;19.104;2023-12-29T05:52:09;71.45;;;34.55;;
79204;SDS011;68632;47.512;19.104;2023-12-29T05:53:11;72.75;;;33.17;;
79204;SDS011;68632;47.512;19.104;2023-12-29T05:54:13;71.57;;;36.95;;
79204;SDS011;68632;47.512;19.104;2023-12-29T05:55:15;75.57;;;38.53;;
79204;SDS011;68632;47.512;19.104;2023-12-29T05:56:18;77.47;;;35.05;;
79204;SDS011;68632;47.512;19.104;2023-12-29T05:57:22;68.97;;;37.70;;
79204;SDS011;68632;47.512;19.104;2023-12-29T05:58:24;65.47;;;34.70;;
79204;SDS011;68632;47.512;19.104;2023-12-29T05:59:26;79.70;;;38.30;;
79204;SDS011;68632;47.512;19.104;2023-12-29T06:00:28;75.00;;;38.60;;
79204;SDS011;68632;47.512;19.104;2023-12-29T06:01:30;69.78;;;33.65;;
79204;SDS011;68632;47.512;19.104;2023-12-29T06:02:33;69.43;;;37.90;;
79204;SDS011;68632;47.512;19.104;2023-12-29T06:03:35;67.15;;;34.58;;
79204;SDS011;68632;47.512;19.104;2023-12-29T06:04:37;77.35;;;36.00;;
79204;SDS011;68632;47.512;19.104;2023-12-29T06:05:39;74.18;;;34.90;;